Time;durP1;ratioP1;P1;durP2;ratioP2;P2;SDS_P1;SDS_P2;PMS_P1;PMS_P2;Temp;Humidity;BMP_temperature;BMP_pressure;BME280_temperature;BME280_humidity;BME280_pressure;Samples;Min_cycle;Max_cycle;Signal;HPM_P1;HPM_P2
2024/03/21 00:00:57;;;;;;;;;;;23.90;41.50;;;;;;5079352;28;19912;-41
2024/03/21 00:03:22;;;;;;;;;;;23.90;41.50;;;;;;5080238;28;19994;-43
2024/03/21 00:05:48;;;;;;;;;;;23.90;41.30;;;;;;5063472;28;19908;-43
2024/03/21 00:08:14;;;;;;;;;;;23.80;41.40;;;;;;5080398;28;19919;-40
2024/03/21 00:10:40;;;;;;;;;;;23.80;41.40;;;;;;5080145;28;19908;-41
2024/03/21 00:13:06;;;;;;;;;;;23.80;41.40;;;;;;5080266;28;19927;-40
2024/03/21 00:15:32;;;;;;;;;;;23.80;41.30;;;;;;5079571;28;19912;-41
2024/03/21 00:18:00;;;;;;;;;;;23.80;41.30;;;;;;5077959;28;19931;-40
2024/03/21 00:20:28;;;;;;;;;;;23.70;41.20;;;;;;5076998;28;19912;-40
2024/03/21 00:22:54;;;;;;;;;;;23.70;41.30;;;;;;5072749;28;19912;-41
2024/03/21 00:25:19;;;;;;;;;;;23.70;41.30;;;;;;5074273;28;19919;-41
2024/03/21 00:27:45;;;;;;;;;;;23.70;41.30;;;;;;5070445;28;19909;-45
2024/03/21 00:30:11;;;;;;;;;;;23.70;41.40;;;;;;5074924;28;20003;-43
2024/03/21 00:32:37;;;;;;;;;;;23.60;41.30;;;;;;5066529;28;19947;-42
2024/03/21 00:35:03;;;;;;;;;;;23.60;41.30;;;;;;5078749;28;19919;-42
2024/03/21 00:37:29;;;;;;;;;;;23.60;41.40;;;;;;5076525;28;19916;-41
2024/03/21 00:39:55;;;;;;;;;;;23.60;41.40;;;;;;5076235;28;19912;-40
2024/03/21 00:42:21;;;;;;;;;;;23.60;41.40;;;;;;5068280;28;19917;-41
2024/03/21 00:44:47;;;;;;;;;;;23.60;41.40;;;;;;5076849;28;19920;-41
2024/03/21 00:47:13;;;;;;;;;;;23.50;41.40;;;;;;5083748;28;19914;-43
2024/03/21 00:49:39;;;;;;;;;;;23.50;41.40;;;;;;5082128;28;19908;-41
2024/03/21 00:52:05;;;;;;;;;;;23.50;41.50;;;;;;5071070;28;19924;-39
2024/03/21 00:54:31;;;;;;;;;;;23.50;41.50;;;;;;5068927;28;19947;-41
2024/03/21 00:56:57;;;;;;;;;;;23.50;42.10;;;;;;5073272;28;19912;-43
2024/03/21 00:59:23;;;;;;;;;;;23.40;41.50;;;;;;5068727;28;19919;-40
2024/03/21 01:01:50;;;;;;;;;;;23.40;41.50;;;;;;5069154;28;19909;-41
2024/03/21 01:04:16;;;;;;;;;;;23.40;41.60;;;;;;5068225;28;19928;-42
2024/03/21 01:06:44;;;;;;;;;;;23.30;41.50;;;;;;5082563;28;19913;-43
2024/03/21 01:09:19;;;;;;;;;;;23.30;41.50;;;;;;5073217;28;19912;-43
2024/03/21 01:11:46;;;;;;;;;;;23.30;41.60;;;;;;5074028;28;19983;-41
2024/03/21 01:14:12;;;;;;;;;;;23.30;41.60;;;;;;5081903;28;19915;-41
2024/03/21 01:16:39;;;;;;;;;;;23.30;42.10;;;;;;5075192;28;19932;-45
2024/03/21 01:19:05;;;;;;;;;;;23.20;41.60;;;;;;5084442;28;19912;-40
2024/03/21 01:21:50;;;;;;;;;;;23.20;41.60;;;;;;5077890;28;19912;-41
2024/03/21 01:24:18;;;;;;;;;;;23.20;41.60;;;;;;5072746;28;19913;-41
2024/03/21 01:26:48;;;;;;;;;;;23.20;41.60;;;;;;5069085;28;19913;-42
2024/03/21 01:29:15;;;;;;;;;;;23.10;41.70;;;;;;5075464;28;19920;-40
2024/03/21 01:31:44;;;;;;;;;;;23.10;41.70;;;;;;5074809;28;19969;-41
2024/03/21 01:34:12;;;;;;;;;;;23.10;41.60;;;;;;5080539;28;19912;-45
2024/03/21 01:36:46;;;;;;;;;;;23.10;41.70;;;;;;5074092;28;19908;-42
2024/03/21 01:39:13;;;;;;;;;;;23.00;41.70;;;;;;5073382;28;19912;-45
2024/03/21 01:41:40;;;;;;;;;;;23.00;41.70;;;;;;5065004;28;19963;-41
2024/03/21 01:44:14;;;;;;;;;;;23.10;42.30;;;;;;5076728;28;19939;-39
2024/03/21 01:46:48;;;;;;;;;;;23.10;42.40;;;;;;5072345;28;20279;-40
2024/03/21 01:49:15;;;;;;;;;;;23.00;42.40;;;;;;5064727;28;19919;-42
2024/03/21 01:51:42;;;;;;;;;;;23.00;42.60;;;;;;5080314;28;19924;-40
2024/03/21 01:54:10;;;;;;;;;;;23.00;42.40;;;;;;5071784;28;19908;-42
2024/03/21 01:56:37;;;;;;;;;;;23.00;43.00;;;;;;5064211;28;19912;-41
2024/03/21 01:59:06;;;;;;;;;;;22.90;42.40;;;;;;5063100;28;19981;-41
2024/03/21 02:01:33;;;;;;;;;;;22.90;42.40;;;;;;5069696;28;19965;-42
2024/03/21 02:04:00;;;;;;;;;;;22.90;42.40;;;;;;5065338;28;19947;-43
2024/03/21 02:06:29;;;;;;;;;;;22.90;43.30;;;;;;5064530;28;19999;-42
2024/03/21 02:08:58;;;;;;;;;;;23.00;42.90;;;;;;5064332;28;20015;-42
2024/03/21 02:11:24;;;;;;;;;;;23.00;43.00;;;;;;5078652;28;20006;-42
2024/03/21 02:13:52;;;;;;;;;;;22.90;42.90;;;;;;5070377;28;19976;-45
2024/03/21 02:16:18;;;;;;;;;;;22.90;42.90;;;;;;5072137;28;19927;-42
2024/03/21 02:18:44;;;;;;;;;;;22.90;42.80;;;;;;5073928;28;19917;-41
2024/03/21 02:23:58;;;;;;;;;;;22.80;42.70;;;;;;5080004;28;20498;-41
2024/03/21 02:26:27;;;;;;;;;;;22.90;43.20;;;;;;5070789;28;19955;-41
2024/03/21 02:28:53;;;;;;;;;;;22.90;43.30;;;;;;5071187;28;19972;-42
2024/03/21 02:31:19;;;;;;;;;;;22.90;43.30;;;;;;5071354;28;19920;-42
2024/03/21 02:33:46;;;;;;;;;;;22.90;43.30;;;;;;5076614;28;19915;-40
2024/03/21 02:36:12;;;;;;;;;;;22.90;43.20;;;;;;5067571;28;19972;-41
2024/03/21 02:38:39;;;;;;;;;;;22.80;43.10;;;;;;5079827;28;20025;-42
2024/03/21 02:41:06;;;;;;;;;;;22.80;43.10;;;;;;5063268;28;19936;-43
2024/03/21 02:43:32;;;;;;;;;;;22.80;43.10;;;;;;5070598;28;19916;-43
2024/03/21 02:45:59;;;;;;;;;;;22.80;43.20;;;;;;5061396;28;19948;-43
2024/03/21 02:48:25;;;;;;;;;;;22.80;43.50;;;;;;5063602;28;19959;-40
2024/03/21 02:50:51;;;;;;;;;;;22.80;43.50;;;;;;5075250;28;19924;-44
2024/03/21 02:53:17;;;;;;;;;;;22.80;43.50;;;;;;5077391;28;20475;-40
2024/03/21 02:55:44;;;;;;;;;;;22.80;43.50;;;;;;5069145;28;19968;-41
2024/03/21 02:58:10;;;;;;;;;;;22.80;43.50;;;;;;5070416;28;19927;-40
2024/03/21 03:00:36;;;;;;;;;;;22.80;43.50;;;;;;5071891;28;19943;-42
2024/03/21 03:03:03;;;;;;;;;;;22.70;43.40;;;;;;5074078;28;19912;-41
2024/03/21 03:05:29;;;;;;;;;;;22.70;43.40;;;;;;5070493;28;19919;-40
2024/03/21 03:07:58;;;;;;;;;;;22.70;43.60;;;;;;5064219;28;19919;-40
2024/03/21 03:10:25;;;;;;;;;;;22.80;43.80;;;;;;5081833;28;19915;-41
2024/03/21 03:13:05;;;;;;;;;;;22.80;43.80;;;;;;5073422;28;19924;-39
2024/03/21 03:15:52;;;;;;;;;;;22.80;43.80;;;;;;5073276;28;19912;-40
2024/03/21 03:18:35;;;;;;;;;;;22.70;43.70;;;;;;5078047;28;19915;-41
2024/03/21 03:21:04;;;;;;;;;;;22.70;44.30;;;;;;5073477;28;19913;-44
2024/03/21 03:23:30;;;;;;;;;;;22.70;43.60;;;;;;5074086;28;19904;-40
2024/03/21 03:25:57;;;;;;;;;;;22.70;43.70;;;;;;5074843;28;19961;-43
2024/03/21 03:28:23;;;;;;;;;;;22.70;43.90;;;;;;5080724;28;19939;-40
2024/03/21 03:30:49;;;;;;;;;;;22.70;44.00;;;;;;5067071;28;19919;-42
2024/03/21 03:36:01;;;;;;;;;;;22.70;43.90;;;;;;5067938;28;19919;-40
2024/03/21 03:38:27;;;;;;;;;;;22.70;43.90;;;;;;5079353;28;19908;-42
2024/03/21 03:40:53;;;;;;;;;;;22.60;43.90;;;;;;5080909;28;19927;-43
2024/03/21 03:43:19;;;;;;;;;;;22.60;43.80;;;;;;5080745;28;19912;-41
2024/03/21 03:45:46;;;;;;;;;;;22.60;44.00;;;;;;5073286;28;19909;-41
2024/03/21 03:48:12;;;;;;;;;;;22.70;44.20;;;;;;5066218;28;20050;-42
2024/03/21 03:50:38;;;;;;;;;;;22.70;44.20;;;;;;5075368;28;19924;-43
2024/03/21 03:53:04;;;;;;;;;;;22.70;44.20;;;;;;5076154;28;19920;-43
2024/03/21 03:55:31;;;;;;;;;;;22.70;44.10;;;;;;5077010;28;19912;-43
2024/03/21 03:57:57;;;;;;;;;;;22.60;44.10;;;;;;5067579;28;19912;-43
2024/03/21 04:00:23;;;;;;;;;;;22.60;44.10;;;;;;5063845;28;19916;-40
2024/03/21 04:02:49;;;;;;;;;;;22.60;44.10;;;;;;5077647;28;19987;-41
2024/03/21 04:05:17;;;;;;;;;;;22.60;44.30;;;;;;5074703;28;19975;-41
2024/03/21 04:07:46;;;;;;;;;;;22.70;44.40;;;;;;5083045;28;19916;-41
2024/03/21 04:10:12;;;;;;;;;;;22.70;44.30;;;;;;5077607;28;20258;-42
2024/03/21 04:12:39;;;;;;;;;;;22.60;44.30;;;;;;5082986;28;20435;-43
2024/03/21 04:15:07;;;;;;;;;;;22.60;44.20;;;;;;5081341;28;19913;-44
2024/03/21 04:17:33;;;;;;;;;;;22.60;44.20;;;;;;5081706;28;19999;-41
2024/03/21 04:20:00;;;;;;;;;;;22.60;44.20;;;;;;5081832;28;20492;-43
2024/03/21 04:22:26;;;;;;;;;;;22.60;44.30;;;;;;5077307;28;19976;-43
2024/03/21 04:24:52;;;;;;;;;;;22.60;44.50;;;;;;5073923;28;19912;-45
2024/03/21 04:27:18;;;;;;;;;;;22.60;44.40;;;;;;5075886;28;19915;-40
2024/03/21 04:29:44;;;;;;;;;;;22.60;44.40;;;;;;5083266;28;19920;-42
2024/03/21 04:32:13;;;;;;;;;;;22.60;44.40;;;;;;5082031;28;19917;-45
2024/03/21 04:34:39;;;;;;;;;;;22.60;44.40;;;;;;5081304;28;19913;-42
2024/03/21 04:37:06;;;;;;;;;;;22.50;44.30;;;;;;5078145;28;19999;-43
2024/03/21 04:39:32;;;;;;;;;;;22.50;44.30;;;;;;5081507;28;19913;-43
2024/03/21 04:41:58;;;;;;;;;;;22.50;44.60;;;;;;5083505;28;19920;-43
2024/03/21 04:44:24;;;;;;;;;;;22.60;44.60;;;;;;5082178;28;19927;-42
2024/03/21 04:46:50;;;;;;;;;;;22.60;44.60;;;;;;5076651;28;19912;-41
2024/03/21 04:49:15;;;;;;;;;;;22.60;44.60;;;;;;5077578;28;19908;-42
2024/03/21 04:51:41;;;;;;;;;;;22.60;44.50;;;;;;5066895;28;19920;-42
2024/03/21 04:54:07;;;;;;;;;;;22.50;44.40;;;;;;5081053;28;20007;-43
2024/03/21 04:56:33;;;;;;;;;;;22.50;44.40;;;;;;5081285;28;19912;-40
2024/03/21 04:58:59;;;;;;;;;;;22.50;44.60;;;;;;5082794;28;19912;-43
2024/03/21 05:01:25;;;;;;;;;;;22.60;44.70;;;;;;5082281;28;20433;-41
2024/03/21 05:03:51;;;;;;;;;;;22.60;44.70;;;;;;5070789;28;20323;-40
2024/03/21 05:06:16;;;;;;;;;;;22.60;44.70;;;;;;5074365;28;19912;-41
2024/03/21 05:08:43;;;;;;;;;;;22.50;44.60;;;;;;5075274;28;19912;-41
2024/03/21 05:11:09;;;;;;;;;;;22.50;44.60;;;;;;5083023;28;19988;-42
2024/03/21 05:13:34;;;;;;;;;;;22.50;44.60;;;;;;5076674;28;19920;-44
2024/03/21 05:16:00;;;;;;;;;;;22.50;44.60;;;;;;5077169;28;19908;-43
2024/03/21 05:18:26;;;;;;;;;;;22.50;44.70;;;;;;5072575;28;19919;-44
2024/03/21 05:20:52;;;;;;;;;;;22.50;44.80;;;;;;5081096;28;19912;-43
2024/03/21 05:23:18;;;;;;;;;;;22.50;44.80;;;;;;5081902;28;19999;-43
2024/03/21 05:25:44;;;;;;;;;;;22.50;44.80;;;;;;5071931;28;19919;-44
2024/03/21 05:28:09;;;;;;;;;;;22.50;44.70;;;;;;5084351;28;19915;-45
2024/03/21 05:30:35;;;;;;;;;;;22.50;44.70;;;;;;5072701;28;19947;-43
2024/03/21 05:33:03;;;;;;;;;;;22.40;44.60;;;;;;5072223;28;19947;-42
2024/03/21 05:35:29;;;;;;;;;;;22.40;44.80;;;;;;5073283;28;19916;-42
2024/03/21 05:37:55;;;;;;;;;;;22.50;44.90;;;;;;5074755;28;19950;-42
2024/03/21 05:40:21;;;;;;;;;;;22.50;44.90;;;;;;5081327;28;20009;-42
2024/03/21 05:42:48;;;;;;;;;;;22.50;44.90;;;;;;5074989;28;19919;-43
2024/03/21 05:45:14;;;;;;;;;;;22.50;44.80;;;;;;5073933;28;19942;-43
2024/03/21 05:47:40;;;;;;;;;;;22.40;44.70;;;;;;5081041;28;20679;-47
2024/03/21 05:50:07;;;;;;;;;;;22.40;44.70;;;;;;5081864;28;19987;-43
2024/03/21 05:52:33;;;;;;;;;;;22.40;44.80;;;;;;5075912;28;19947;-41
2024/03/21 05:54:59;;;;;;;;;;;22.50;45.00;;;;;;5078666;28;19920;-44
2024/03/21 05:57:25;;;;;;;;;;;22.50;44.90;;;;;;5074268;28;19904;-43
2024/03/21 05:59:54;;;;;;;;;;;22.50;44.90;;;;;;5063494;28;19936;-45
2024/03/21 06:02:20;;;;;;;;;;;22.50;44.90;;;;;;5070243;28;19908;-43
2024/03/21 06:04:46;;;;;;;;;;;22.40;44.80;;;;;;5071583;28;19931;-42
2024/03/21 06:07:12;;;;;;;;;;;22.40;44.80;;;;;;5064324;28;19916;-43
2024/03/21 06:09:37;;;;;;;;;;;22.40;44.80;;;;;;5074533;28;19913;-43
2024/03/21 06:12:03;;;;;;;;;;;22.40;45.00;;;;;;5068635;28;20007;-42
2024/03/21 06:14:29;;;;;;;;;;;22.40;45.00;;;;;;5070994;28;19917;-42
2024/03/21 06:16:55;;;;;;;;;;;22.50;45.00;;;;;;5068882;28;19942;-41
2024/03/21 06:19:21;;;;;;;;;;;22.40;44.90;;;;;;5074277;28;19916;-43
2024/03/21 06:21:47;;;;;;;;;;;22.40;44.90;;;;;;5074936;28;19912;-43
2024/03/21 06:24:13;;;;;;;;;;;22.40;44.90;;;;;;5071932;28;19908;-44
2024/03/21 06:26:40;;;;;;;;;;;22.30;44.80;;;;;;5068098;28;19979;-41
2024/03/21 06:29:05;;;;;;;;;;;22.40;45.10;;;;;;5068687;28;19912;-46
2024/03/21 06:31:31;;;;;;;;;;;22.40;45.10;;;;;;5070204;28;19977;-42
2024/03/21 06:33:57;;;;;;;;;;;22.40;45.00;;;;;;5074089;28;19935;-43
2024/03/21 06:36:23;;;;;;;;;;;22.40;45.00;;;;;;5071311;28;19919;-43
2024/03/21 06:38:51;;;;;;;;;;;22.40;45.00;;;;;;5071860;28;19913;-41
2024/03/21 06:41:17;;;;;;;;;;;22.40;45.00;;;;;;5066805;28;19934;-43
2024/03/21 06:43:42;;;;;;;;;;;22.30;45.00;;;;;;5065925;28;19967;-42
2024/03/21 06:46:08;;;;;;;;;;;22.30;45.10;;;;;;5075362;28;19915;-41
2024/03/21 06:48:34;;;;;;;;;;;22.40;45.20;;;;;;5071740;28;19912;-41
2024/03/21 06:51:05;;;;;;;;;;;22.40;45.20;;;;;;5070274;28;19908;-43
2024/03/21 06:53:31;;;;;;;;;;;22.40;45.10;;;;;;5071815;28;20031;-41
2024/03/21 06:55:57;;;;;;;;;;;22.40;45.10;;;;;;5073389;28;19954;-40
2024/03/21 06:58:23;;;;;;;;;;;22.30;45.10;;;;;;5072912;28;19916;-41
2024/03/21 07:00:48;;;;;;;;;;;22.30;45.10;;;;;;5074965;28;19908;-42
2024/03/21 07:03:14;;;;;;;;;;;22.30;45.20;;;;;;5073910;28;19912;-43
2024/03/21 07:05:41;;;;;;;;;;;22.40;45.30;;;;;;5070257;28;20521;-40
2024/03/21 07:08:07;;;;;;;;;;;22.40;45.30;;;;;;5072597;28;19913;-43
2024/03/21 07:10:33;;;;;;;;;;;22.40;45.20;;;;;;5073760;28;19916;-40
2024/03/21 07:12:58;;;;;;;;;;;22.30;45.20;;;;;;5070352;28;19920;-41
2024/03/21 07:15:24;;;;;;;;;;;22.30;45.20;;;;;;5074952;28;19913;-43
2024/03/21 07:17:50;;;;;;;;;;;22.30;45.20;;;;;;5071081;28;19920;-40
2024/03/21 07:20:16;;;;;;;;;;;22.30;45.30;;;;;;5067982;28;19928;-43
2024/03/21 07:22:43;;;;;;;;;;;22.30;45.30;;;;;;5074319;28;19991;-41
2024/03/21 07:25:09;;;;;;;;;;;22.40;45.30;;;;;;5073762;28;19943;-42
2024/03/21 07:27:35;;;;;;;;;;;22.30;45.30;;;;;;5074245;28;19923;-42
2024/03/21 07:30:07;;;;;;;;;;;22.30;45.30;;;;;;5073714;28;19916;-42
2024/03/21 07:32:33;;;;;;;;;;;22.30;45.30;;;;;;5074884;28;20107;-41
2024/03/21 07:34:59;;;;;;;;;;;22.20;45.20;;;;;;5074105;28;19975;-40
2024/03/21 07:37:25;;;;;;;;;;;22.30;45.40;;;;;;5066853;28;19948;-41
2024/03/21 07:39:52;;;;;;;;;;;22.30;45.40;;;;;;5069824;28;19939;-45
2024/03/21 07:42:17;;;;;;;;;;;22.30;45.40;;;;;;5076545;28;19995;-42
2024/03/21 07:44:43;;;;;;;;;;;22.30;45.40;;;;;;5079976;28;20423;-45
2024/03/21 07:47:09;;;;;;;;;;;22.30;45.30;;;;;;5082190;28;19931;-42
2024/03/21 07:49:35;;;;;;;;;;;22.20;45.30;;;;;;5079350;28;20022;-41
2024/03/21 07:52:01;;;;;;;;;;;22.20;45.40;;;;;;5078070;28;19925;-43
2024/03/21 07:54:30;;;;;;;;;;;22.30;45.50;;;;;;5078152;28;19935;-44
2024/03/21 07:56:59;;;;;;;;;;;22.30;45.50;;;;;;5073523;28;19912;-43
2024/03/21 07:59:25;;;;;;;;;;;22.30;45.50;;;;;;5079388;28;19916;-42
2024/03/21 08:01:51;;;;;;;;;;;22.30;45.40;;;;;;5080352;28;19920;-41
2024/03/21 08:04:17;;;;;;;;;;;22.30;45.40;;;;;;5074393;28;19913;-43
2024/03/21 08:06:42;;;;;;;;;;;22.20;45.40;;;;;;5077838;28;19932;-41
2024/03/21 08:09:09;;;;;;;;;;;22.20;45.40;;;;;;5073520;28;19912;-43
2024/03/21 08:11:35;;;;;;;;;;;22.20;45.50;;;;;;5073770;28;19920;-47
2024/03/21 08:14:01;;;;;;;;;;;22.30;45.50;;;;;;5078140;28;19912;-44
2024/03/21 08:16:28;;;;;;;;;;;22.30;45.50;;;;;;5074483;28;19912;-42
2024/03/21 08:18:53;;;;;;;;;;;22.30;45.50;;;;;;5078661;28;19921;-41
2024/03/21 08:21:21;;;;;;;;;;;22.30;45.40;;;;;;5069717;28;19912;-44
2024/03/21 08:23:47;;;;;;;;;;;22.20;45.40;;;;;;5072627;28;20633;-41
2024/03/21 08:26:13;;;;;;;;;;;22.20;45.50;;;;;;5078307;28;20022;-40
2024/03/21 08:28:39;;;;;;;;;;;22.20;45.60;;;;;;5066682;28;19913;-41
2024/03/21 08:31:05;;;;;;;;;;;22.30;45.60;;;;;;5065550;28;19920;-40
2024/03/21 08:33:31;;;;;;;;;;;22.30;45.60;;;;;;5074521;28;19943;-42
2024/03/21 08:35:56;;;;;;;;;;;22.30;45.50;;;;;;5065874;28;19920;-46
2024/03/21 08:38:22;;;;;;;;;;;22.20;45.50;;;;;;5074692;28;20385;-44
2024/03/21 08:40:54;;;;;;;;;;;22.20;45.50;;;;;;5066221;28;20019;-44
2024/03/21 08:43:20;;;;;;;;;;;22.20;45.50;;;;;;5073233;28;19912;-43
2024/03/21 08:45:47;;;;;;;;;;;22.20;45.60;;;;;;5072239;28;20400;-45
2024/03/21 08:48:13;;;;;;;;;;;22.30;45.60;;;;;;5080144;28;19908;-41
2024/03/21 08:50:39;;;;;;;;;;;22.30;45.60;;;;;;5082187;28;19927;-47
2024/03/21 08:53:05;;;;;;;;;;;22.20;45.50;;;;;;5072219;28;19916;-48
2024/03/21 08:55:34;;;;;;;;;;;22.20;45.60;;;;;;5066671;28;19916;-41
2024/03/21 08:58:00;;;;;;;;;;;22.20;45.60;;;;;;5066088;28;19928;-44
2024/03/21 09:00:26;;;;;;;;;;;22.20;45.70;;;;;;5074447;28;19909;-41
2024/03/21 09:02:52;;;;;;;;;;;22.20;45.60;;;;;;5076970;28;20500;-40
2024/03/21 09:05:18;;;;;;;;;;;22.20;45.60;;;;;;5075811;28;20346;-43
2024/03/21 09:07:44;;;;;;;;;;;22.20;45.60;;;;;;5071529;28;19913;-41
2024/03/21 09:10:10;;;;;;;;;;;22.20;46.10;;;;;;5065594;28;19991;-45
2024/03/21 09:12:36;;;;;;;;;;;22.20;45.60;;;;;;5068227;28;19935;-48
2024/03/21 09:15:04;;;;;;;;;;;22.10;45.60;;;;;;5082102;28;19909;-44
2024/03/21 09:17:30;;;;;;;;;;;22.20;45.70;;;;;;5075368;28;20313;-43
2024/03/21 09:19:56;;;;;;;;;;;22.20;45.70;;;;;;5072294;28;19916;-42
2024/03/21 09:22:22;;;;;;;;;;;22.20;45.60;;;;;;5072761;28;20448;-42
2024/03/21 09:24:48;;;;;;;;;;;22.20;45.60;;;;;;5071755;28;19912;-43
2024/03/21 09:27:13;;;;;;;;;;;22.20;45.60;;;;;;5074394;28;20380;-44
2024/03/21 09:29:39;;;;;;;;;;;22.10;45.60;;;;;;5080586;28;19916;-43
2024/03/21 09:32:05;;;;;;;;;;;22.10;45.60;;;;;;5070591;28;19912;-42
2024/03/21 09:34:31;;;;;;;;;;;22.10;45.70;;;;;;5064245;28;20440;-42
2024/03/21 09:36:57;;;;;;;;;;;22.20;45.70;;;;;;5082326;28;20019;-41
2024/03/21 09:39:23;;;;;;;;;;;22.20;45.70;;;;;;5081078;28;19915;-41
2024/03/21 09:41:50;;;;;;;;;;;22.20;45.70;;;;;;5082179;28;19912;-43
2024/03/21 09:44:15;;;;;;;;;;;22.20;45.70;;;;;;5074119;28;19917;-46
2024/03/21 09:46:41;;;;;;;;;;;22.10;45.60;;;;;;5074418;28;20090;-41
2024/03/21 09:49:09;;;;;;;;;;;22.10;45.70;;;;;;5074033;28;19908;-42
2024/03/21 09:51:34;;;;;;;;;;;22.10;45.70;;;;;;5079315;28;19916;-42
2024/03/21 09:54:00;;;;;;;;;;;22.20;45.70;;;;;;5073756;28;20334;-41
2024/03/21 09:56:26;;;;;;;;;;;22.20;45.70;;;;;;5079040;28;19909;-43
2024/03/21 09:58:52;;;;;;;;;;;22.10;45.60;;;;;;5064760;28;19927;-42
2024/03/21 10:01:21;;;;;;;;;;;22.10;45.60;;;;;;5071975;28;19905;-41
2024/03/21 10:03:48;;;;;;;;;;;22.10;45.70;;;;;;5076776;28;19912;-42
2024/03/21 10:06:14;;;;;;;;;;;22.10;45.70;;;;;;5072299;28;19958;-42
2024/03/21 10:08:40;;;;;;;;;;;22.20;45.80;;;;;;5080609;28;20210;-42
2024/03/21 10:11:06;;;;;;;;;;;22.20;45.70;;;;;;5069244;28;19931;-42
2024/03/21 10:13:34;;;;;;;;;;;22.20;45.80;;;;;;5073876;28;19920;-44
2024/03/21 10:16:00;;;;;;;;;;;22.10;45.70;;;;;;5081071;28;19912;-43
2024/03/21 10:18:26;;;;;;;;;;;22.10;45.70;;;;;;5080489;28;19908;-41
2024/03/21 10:20:51;;;;;;;;;;;22.10;45.80;;;;;;5083141;28;19992;-45
2024/03/21 10:23:17;;;;;;;;;;;22.10;45.80;;;;;;5081778;28;19931;-42
2024/03/21 10:25:48;;;;;;;;;;;22.20;45.80;;;;;;5076868;28;20510;-42
2024/03/21 10:28:19;;;;;;;;;;;22.20;45.80;;;;;;5081059;28;19915;-43
2024/03/21 10:30:45;;;;;;;;;;;22.10;45.70;;;;;;5073789;28;19953;-44
2024/03/21 10:33:17;;;;;;;;;;;22.10;45.70;;;;;;5074916;28;20027;-42
2024/03/21 10:35:44;;;;;;;;;;;22.10;45.70;;;;;;5080129;28;19913;-42
2024/03/21 10:38:13;;;;;;;;;;;22.10;45.80;;;;;;5073715;28;19959;-43
2024/03/21 10:40:43;;;;;;;;;;;22.20;45.80;;;;;;5064678;28;19912;-41
2024/03/21 10:43:09;;;;;;;;;;;22.20;45.80;;;;;;5076591;28;20408;-42
2024/03/21 10:45:34;;;;;;;;;;;22.10;45.70;;;;;;5079521;28;19920;-42
2024/03/21 10:48:00;;;;;;;;;;;22.10;45.70;;;;;;5074668;28;19909;-41
2024/03/21 10:50:26;;;;;;;;;;;22.10;45.80;;;;;;5087856;28;20369;-41
2024/03/21 10:52:55;;;;;;;;;;;22.00;45.80;;;;;;5080903;28;20573;-43
2024/03/21 10:55:21;;;;;;;;;;;22.10;45.80;;;;;;5076914;28;20273;-42
2024/03/21 10:57:51;;;;;;;;;;;22.10;45.80;;;;;;5070984;28;19912;-43
2024/03/21 11:00:20;;;;;;;;;;;22.10;45.70;;;;;;5063473;28;19913;-44
2024/03/21 11:02:52;;;;;;;;;;;22.10;45.80;;;;;;5079201;28;20272;-47
2024/03/21 11:05:18;;;;;;;;;;;22.10;45.80;;;;;;5067135;28;19920;-46
2024/03/21 11:07:44;;;;;;;;;;;22.00;45.80;;;;;;5073145;28;19980;-46
2024/03/21 11:10:17;;;;;;;;;;;22.10;45.90;;;;;;5063266;28;19944;-47
2024/03/21 11:12:44;;;;;;;;;;;22.10;45.80;;;;;;5071164;28;19939;-42
2024/03/21 11:15:10;;;;;;;;;;;22.10;45.80;;;;;;5070684;28;19935;-44
2024/03/21 11:17:36;;;;;;;;;;;22.10;45.80;;;;;;5074762;28;19920;-43
2024/03/21 11:20:05;;;;;;;;;;;22.10;45.80;;;;;;5075086;28;19916;-43
2024/03/21 11:22:31;;;;;;;;;;;22.00;45.80;;;;;;5078961;28;19998;-42
2024/03/21 11:24:58;;;;;;;;;;;22.00;45.80;;;;;;5082461;28;19920;-45
2024/03/21 11:27:23;;;;;;;;;;;22.10;45.90;;;;;;5079164;28;19912;-44
2024/03/21 11:29:49;;;;;;;;;;;22.10;45.90;;;;;;5073206;28;19935;-42
2024/03/21 11:32:23;;;;;;;;;;;22.10;45.80;;;;;;5073281;28;20008;-43
2024/03/21 11:34:49;;;;;;;;;;;22.10;45.80;;;;;;5067512;28;19948;-43
2024/03/21 11:37:16;;;;;;;;;;;22.00;45.80;;;;;;5067438;28;19972;-42
2024/03/21 11:39:41;;;;;;;;;;;22.00;45.80;;;;;;5076951;28;19923;-43
2024/03/21 11:42:14;;;;;;;;;;;22.00;45.90;;;;;;5084756;28;19912;-44
2024/03/21 11:44:42;;;;;;;;;;;22.10;45.90;;;;;;5074087;28;19963;-43
2024/03/21 11:47:12;;;;;;;;;;;22.10;45.90;;;;;;5080065;28;19912;-42
2024/03/21 11:49:38;;;;;;;;;;;22.10;45.90;;;;;;5080604;28;19940;-44
2024/03/21 11:52:07;;;;;;;;;;;22.10;45.80;;;;;;5074229;28;19921;-43
2024/03/21 11:54:33;;;;;;;;;;;22.00;45.80;;;;;;5075449;28;19912;-42
2024/03/21 11:56:59;;;;;;;;;;;22.00;45.90;;;;;;5077364;28;19912;-43
2024/03/21 11:59:30;;;;;;;;;;;22.10;46.00;;;;;;5078636;28;19934;-46
2024/03/21 12:01:59;;;;;;;;;;;22.10;45.90;;;;;;5077436;28;19956;-43
2024/03/21 12:04:26;;;;;;;;;;;22.10;45.90;;;;;;5076498;28;19931;-44
2024/03/21 12:06:51;;;;;;;;;;;22.00;45.90;;;;;;5080819;28;19912;-45
2024/03/21 12:09:17;;;;;;;;;;;22.00;45.80;;;;;;5073360;28;20259;-47
2024/03/21 12:11:44;;;;;;;;;;;22.00;45.90;;;;;;5076064;28;19920;-44
2024/03/21 12:14:10;;;;;;;;;;;22.00;46.00;;;;;;5082178;28;19916;-46
2024/03/21 12:16:37;;;;;;;;;;;22.10;46.00;;;;;;5075281;28;19916;-46
2024/03/21 12:19:03;;;;;;;;;;;22.10;45.90;;;;;;5074248;28;19979;-43
2024/03/21 12:21:29;;;;;;;;;;;22.10;45.90;;;;;;5082734;28;19919;-45
2024/03/21 12:23:55;;;;;;;;;;;22.00;45.90;;;;;;5083025;28;19931;-46
2024/03/21 12:26:21;;;;;;;;;;;22.00;45.90;;;;;;5085054;28;19959;-44
2024/03/21 12:28:47;;;;;;;;;;;22.00;46.00;;;;;;5075622;28;19924;-45
2024/03/21 12:31:14;;;;;;;;;;;22.00;45.90;;;;;;5083478;28;20607;-43
2024/03/21 12:33:44;;;;;;;;;;;22.10;46.00;;;;;;5074514;28;19931;-45
2024/03/21 12:36:10;;;;;;;;;;;22.00;45.90;;;;;;5073418;28;19913;-43
2024/03/21 12:38:36;;;;;;;;;;;22.00;45.90;;;;;;5080973;28;19916;-43
2024/03/21 12:41:02;;;;;;;;;;;22.00;45.90;;;;;;5071037;28;19918;-45
2024/03/21 12:43:28;;;;;;;;;;;22.00;45.90;;;;;;5074512;28;19908;-42
2024/03/21 12:45:58;;;;;;;;;;;22.00;45.90;;;;;;5073272;28;19912;-41
2024/03/21 12:48:24;;;;;;;;;;;22.10;46.00;;;;;;5066979;28;20026;-42
2024/03/21 12:50:50;;;;;;;;;;;22.10;46.00;;;;;;5072251;28;19919;-42
2024/03/21 12:53:20;;;;;;;;;;;22.10;45.90;;;;;;5075609;28;19916;-43
2024/03/21 12:55:45;;;;;;;;;;;22.00;45.90;;;;;;5078834;28;20304;-42
2024/03/21 12:58:11;;;;;;;;;;;22.00;45.90;;;;;;5073565;28;20410;-42
2024/03/21 13:00:37;;;;;;;;;;;22.00;46.00;;;;;;5071513;28;19920;-41
2024/03/21 13:03:04;;;;;;;;;;;22.10;46.00;;;;;;5071493;28;19905;-45
2024/03/21 13:05:30;;;;;;;;;;;22.10;46.00;;;;;;5066403;28;19919;-44
2024/03/21 13:07:55;;;;;;;;;;;22.10;46.00;;;;;;5071017;28;19912;-42
2024/03/21 13:10:21;;;;;;;;;;;22.10;46.00;;;;;;5069700;28;19913;-45
2024/03/21 13:12:47;;;;;;;;;;;22.00;45.90;;;;;;5073284;28;19928;-43
2024/03/21 13:15:13;;;;;;;;;;;22.00;46.00;;;;;;5074200;28;20039;-43
2024/03/21 13:17:39;;;;;;;;;;;22.10;46.10;;;;;;5075840;28;19912;-46
2024/03/21 13:20:07;;;;;;;;;;;22.10;46.10;;;;;;5070356;28;19913;-41
2024/03/21 13:22:34;;;;;;;;;;;22.10;46.10;;;;;;5073245;28;19912;-44
2024/03/21 13:25:00;;;;;;;;;;;22.10;46.00;;;;;;5076637;28;19916;-43
2024/03/21 13:27:27;;;;;;;;;;;22.10;46.00;;;;;;5073071;28;19919;-41
2024/03/21 13:29:53;;;;;;;;;;;22.10;46.10;;;;;;5069643;28;19958;-42
2024/03/21 13:32:19;;;;;;;;;;;22.10;46.10;;;;;;5073128;28;19920;-41
2024/03/21 13:34:47;;;;;;;;;;;22.20;46.10;;;;;;5065434;28;19912;-42
2024/03/21 13:37:13;;;;;;;;;;;22.20;46.10;;;;;;5069329;28;19916;-44
2024/03/21 13:39:40;;;;;;;;;;;22.20;46.10;;;;;;5071746;28;19966;-42
2024/03/21 13:42:08;;;;;;;;;;;22.20;46.10;;;;;;5064864;28;20255;-42
2024/03/21 13:44:34;;;;;;;;;;;22.20;46.00;;;;;;5071922;28;19920;-41
2024/03/21 13:47:01;;;;;;;;;;;22.10;46.10;;;;;;5064367;28;19909;-42
2024/03/21 13:49:26;;;;;;;;;;;22.20;46.20;;;;;;5066011;28;19913;-43
2024/03/21 13:51:54;;;;;;;;;;;22.30;46.20;;;;;;5073921;28;20011;-45
2024/03/21 13:54:20;;;;;;;;;;;22.30;46.20;;;;;;5068241;28;19928;-44
2024/03/21 13:56:47;;;;;;;;;;;22.30;46.10;;;;;;5071728;28;19912;-43
2024/03/21 13:59:13;;;;;;;;;;;22.20;46.10;;;;;;5070053;28;19916;-43
2024/03/21 14:01:39;;;;;;;;;;;22.20;46.10;;;;;;5073207;28;19913;-44
2024/03/21 14:04:06;;;;;;;;;;;22.30;46.20;;;;;;5075558;28;20393;-43
2024/03/21 14:06:32;;;;;;;;;;;22.30;46.20;;;;;;5081645;28;19923;-43
2024/03/21 14:08:58;;;;;;;;;;;22.40;46.20;;;;;;5075913;28;19909;-41
2024/03/21 14:11:24;;;;;;;;;;;22.40;46.10;;;;;;5064865;28;19971;-44
2024/03/21 14:13:51;;;;;;;;;;;22.30;46.10;;;;;;5075350;28;19920;-43
2024/03/21 14:16:17;;;;;;;;;;;22.30;46.00;;;;;;5064352;28;19947;-41
2024/03/21 14:18:43;;;;;;;;;;;22.40;46.10;;;;;;5073368;28;19909;-41